Terminal Aerodrome Forecast
Issued by NWS

Home | Current Version | Previous Version | Text Only | Print | Product List | Glossary On
Versions: 1 2 3 4 5 6 7 8 9 10 11 12 13 14 15 16 17 18 19 20
454
FTUS46 KMFR 172344
TAFRBG
TAF
KRBG 172344Z 1800/1824 16008KT P6SM -RA SCT035 OVC060 WS020/19035KT
     FM180300 17012G17KT 5SM RA BR SCT020 BKN035 OVC050
     FM181800 18012G18KT 5SM -SHRA SCT010 OVC025=

USA.gov is the U.S. government's official web portal to all federal, state and local government web resources and services.